Cleveland, GA (30528)

8:14 AM EDT on July 23, 2016 (GMT -0400)
Asbury Mill Rd | | Change Station

Elev 1588 ft 34.58 °N, 83.79 °W | Updated 10 minutes ago

Clear
Clear
74.7 °F
Feels Like 73 °F
N
0.0
Wind Variable Wind from ESE
Gusts 0.0 mph

Today
High -- | Low -- °F
--% Chance of Precip.
Yesterday
High -- | Low -- °F
Precip. -- in
Pressure 30.02 in
Visibility 10.0 miles
Clouds Clear
Heat Index 73 °F
Dew Point 72 °F
Humidity 92%
Rainfall 0.00 in
Snow Depth Not available.
6:39 AM 8:43 PM
Waning Gibbous, 85% visible
METAR KGVL 231153Z AUTO 30004KT 10SM CLR 24/23 A3007 RMK AO2 SLP166 T02440228 10244 20222 53002
Pressure 30.02 in
Visibility 10.0 miles
Clouds Clear
Heat Index 73 °F
Dew Point 72 °F
Humidity 92%
Rainfall 0.00 in
Snow Depth Not available.
6:39 AM 8:43 PM
Waning Gibbous, 85% visible
METAR KGVL 231153Z AUTO 30004KT 10SM CLR 24/23 A3007 RMK AO2 SLP166 T02440228 10244 20222 53002

10-Day Weather Forecast

Almanac

Astronomy

Jul. 23, 2016 Rise Set
Actual Time
Civil Twilight
Nautical Twilight
Astronomical Twilight
Moon
Length of Visible Light
Length of Day
Tomorrow will be .
, % of the Moon is Illuminated

Today's Extremes

State Highs State Lows

Community

WunderPhotos

Upload Photos

1,926,811 photos uploaded!

WunderBlog® & News

Nearby

Air Quality

  Air Quality AQ Index Pollutant
Not available.

Snow Depth

Station Depth Elevation

Earthquake Activity

City Distance Mag. Time & Date
Minimum magnitude displayed is 2.5.

Coastal Water Temperatures

Place Temperature

Stations

Nearby Weather Stations

Station Location Temp. Windchill Dew Point Humidity Wind Precip. Elev Updated Type
                   

Watches & Warnings

There are currently no watches in effect.